<?xml version="1.0" encoding="UTF-8" standalone="no" ?>
<gpx xmlns="http://www.topografix.com/GPX/1/1" xmlns:xsi="http://www.w3.org/2001/XMLSchema-instance" xsi:schemaLocation="http://www.topografix.com/GPX/1/1 http://www.topografix.com/GPX/1/1/gpx.xsd" version="1.1" creator="VisuGPX - https://www.visugpx.com">
  <metadata>
    <name>Thise 2022</name>
    <desc><![CDATA[Randonnée ASCEV du jeudi matin ]]></desc>
  </metadata>
  <trk>
    <name><![CDATA[Thise 2022]]></name>
    <trkseg>
      <trkpt lat="47.28415" lon="6.08116">
        <ele>278.654795</ele>
        <time>2022-01-29T10:27:04.181Z</time>
      </trkpt>
      <trkpt lat="47.28441" lon="6.08149">
        <ele>278.654795</ele>
        <time>2022-01-29T10:27:44.765Z</time>
      </trkpt>
      <trkpt lat="47.28458" lon="6.08111">
        <ele>278.654795</ele>
        <time>2022-01-29T10:28:23.306Z</time>
      </trkpt>
      <trkpt lat="47.2846" lon="6.08108">
        <ele>278.654795</ele>
        <time>2022-01-29T10:28:26.158Z</time>
      </trkpt>
      <trkpt lat="47.2846" lon="6.08108">
        <ele>278.654795</ele>
        <time>2022-01-29T10:28:26.270Z</time>
      </trkpt>
      <trkpt lat="47.28485" lon="6.08107">
        <ele>278.953204</ele>
        <time>2022-01-29T10:28:56.300Z</time>
      </trkpt>
      <trkpt lat="47.28489" lon="6.08107">
        <ele>279.304471</ele>
        <time>2022-01-29T10:29:03.656Z</time>
      </trkpt>
      <trkpt lat="47.28511" lon="6.0812">
        <ele>281.670532</ele>
        <time>2022-01-29T10:29:32.923Z</time>
      </trkpt>
      <trkpt lat="47.28529" lon="6.08142">
        <ele>284.049486</ele>
        <time>2022-01-29T10:30:04.778Z</time>
      </trkpt>
      <trkpt lat="47.28542" lon="6.08169">
        <ele>286.302814</ele>
        <time>2022-01-29T10:30:33.802Z</time>
      </trkpt>
      <trkpt lat="47.28545" lon="6.08175">
        <ele>286.823307</ele>
        <time>2022-01-29T10:30:45.127Z</time>
      </trkpt>
      <trkpt lat="47.2859" lon="6.08232">
        <ele>292.798334</ele>
        <time>2022-01-29T10:32:04.987Z</time>
      </trkpt>
      <trkpt lat="47.28727" lon="6.08326">
        <ele>309.442198</ele>
        <time>2022-01-29T10:35:36.600Z</time>
      </trkpt>
      <trkpt lat="47.28796" lon="6.08361">
        <ele>317.714022</ele>
        <time>2022-01-29T10:37:16.065Z</time>
      </trkpt>
      <trkpt lat="47.2886" lon="6.08354">
        <ele>325.438731</ele>
        <time>2022-01-29T10:38:44.416Z</time>
      </trkpt>
      <trkpt lat="47.28868" lon="6.08359">
        <ele>326.430117</ele>
        <time>2022-01-29T10:38:55.507Z</time>
      </trkpt>
      <trkpt lat="47.28868" lon="6.08359">
        <ele>326.430117</ele>
        <time>2022-01-29T10:38:56.361Z</time>
      </trkpt>
      <trkpt lat="47.28871" lon="6.08356">
        <ele>326.929086</ele>
        <time>2022-01-29T10:39:04.529Z</time>
      </trkpt>
      <trkpt lat="47.28903" lon="6.0836">
        <ele>330.774993</ele>
        <time>2022-01-29T10:39:48.764Z</time>
      </trkpt>
      <trkpt lat="47.28942" lon="6.0835">
        <ele>335.503893</ele>
        <time>2022-01-29T10:40:50.701Z</time>
      </trkpt>
      <trkpt lat="47.28982" lon="6.08372">
        <ele>340.091235</ele>
        <time>2022-01-29T10:41:50.447Z</time>
      </trkpt>
      <trkpt lat="47.28985" lon="6.0838">
        <ele>340.711477</ele>
        <time>2022-01-29T10:42:00.391Z</time>
      </trkpt>
      <trkpt lat="47.28985" lon="6.0838">
        <ele>340.711477</ele>
        <time>2022-01-29T10:42:01.885Z</time>
      </trkpt>
      <trkpt lat="47.29013" lon="6.08383">
        <ele>343.337017</ele>
        <time>2022-01-29T10:42:39.101Z</time>
      </trkpt>
      <trkpt lat="47.29024" lon="6.0839">
        <ele>344.508671</ele>
        <time>2022-01-29T10:42:56.964Z</time>
      </trkpt>
      <trkpt lat="47.29039" lon="6.08408">
        <ele>346.375752</ele>
        <time>2022-01-29T10:43:21.393Z</time>
      </trkpt>
      <trkpt lat="47.29046" lon="6.08415">
        <ele>347.142536</ele>
        <time>2022-01-29T10:43:32.153Z</time>
      </trkpt>
      <trkpt lat="47.29046" lon="6.08415">
        <ele>347.148997</ele>
        <time>2022-01-29T10:43:33.233Z</time>
      </trkpt>
      <trkpt lat="47.29094" lon="6.08563">
        <ele>356.487652</ele>
        <time>2022-01-29T10:45:56.076Z</time>
      </trkpt>
      <trkpt lat="47.29139" lon="6.08648">
        <ele>359.189785</ele>
        <time>2022-01-29T10:47:18.840Z</time>
      </trkpt>
      <trkpt lat="47.29157" lon="6.08697">
        <ele>360.596555</ele>
        <time>2022-01-29T10:47:59.727Z</time>
      </trkpt>
      <trkpt lat="47.2916" lon="6.08711">
        <ele>360.946354</ele>
        <time>2022-01-29T10:48:10.083Z</time>
      </trkpt>
      <trkpt lat="47.29161" lon="6.08707">
        <ele>361.035411</ele>
        <time>2022-01-29T10:48:12.724Z</time>
      </trkpt>
      <trkpt lat="47.29164" lon="6.087">
        <ele>361.271639</ele>
        <time>2022-01-29T10:48:19.600Z</time>
      </trkpt>
      <trkpt lat="47.29161" lon="6.08707">
        <ele>361.507867</ele>
        <time>2022-01-29T10:48:26.413Z</time>
      </trkpt>
      <trkpt lat="47.2916" lon="6.08711">
        <ele>361.596924</ele>
        <time>2022-01-29T10:48:28.862Z</time>
      </trkpt>
      <trkpt lat="47.29174" lon="6.08775">
        <ele>362.507411</ele>
        <time>2022-01-29T10:49:17.499Z</time>
      </trkpt>
      <trkpt lat="47.29187" lon="6.08873">
        <ele>362.959061</ele>
        <time>2022-01-29T10:50:27.096Z</time>
      </trkpt>
      <trkpt lat="47.29196" lon="6.08908">
        <ele>363.129856</ele>
        <time>2022-01-29T10:50:53.148Z</time>
      </trkpt>
      <trkpt lat="47.29204" lon="6.08917">
        <ele>363.192062</ele>
        <time>2022-01-29T10:51:02.501Z</time>
      </trkpt>
      <trkpt lat="47.29204" lon="6.08917">
        <ele>363.192062</ele>
        <time>2022-01-29T10:51:02.584Z</time>
      </trkpt>
      <trkpt lat="47.2926" lon="6.08981">
        <ele>363.531918</ele>
        <time>2022-01-29T10:52:14.122Z</time>
      </trkpt>
      <trkpt lat="47.29269" lon="6.0899">
        <ele>363.5313</ele>
        <time>2022-01-29T10:52:24.748Z</time>
      </trkpt>
      <trkpt lat="47.29429" lon="6.09172">
        <ele>363.669855</ele>
        <time>2022-01-29T10:55:46.817Z</time>
      </trkpt>
      <trkpt lat="47.29432" lon="6.09164">
        <ele>363.688072</ele>
        <time>2022-01-29T10:55:54.764Z</time>
      </trkpt>
      <trkpt lat="47.29429" lon="6.09172">
        <ele>363.706289</ele>
        <time>2022-01-29T10:56:02.079Z</time>
      </trkpt>
      <trkpt lat="47.29541" lon="6.093">
        <ele>364.185411</ele>
        <time>2022-01-29T10:58:26.732Z</time>
      </trkpt>
      <trkpt lat="47.29568" lon="6.09332">
        <ele>364.381833</ele>
        <time>2022-01-29T10:59:01.557Z</time>
      </trkpt>
      <trkpt lat="47.29609" lon="6.0938">
        <ele>364.676565</ele>
        <time>2022-01-29T10:59:54.613Z</time>
      </trkpt>
      <trkpt lat="47.29688" lon="6.09473">
        <ele>365.420615</ele>
        <time>2022-01-29T11:01:38.673Z</time>
      </trkpt>
      <trkpt lat="47.2971" lon="6.09498">
        <ele>365.708814</ele>
        <time>2022-01-29T11:02:07.391Z</time>
      </trkpt>
      <trkpt lat="47.2971" lon="6.09498">
        <ele>365.708814</ele>
        <time>2022-01-29T11:02:07.504Z</time>
      </trkpt>
      <trkpt lat="47.29738" lon="6.09529">
        <ele>366.072371</ele>
        <time>2022-01-29T11:02:43.475Z</time>
      </trkpt>
      <trkpt lat="47.29859" lon="6.09663">
        <ele>368.951384</ele>
        <time>2022-01-29T11:05:22.564Z</time>
      </trkpt>
      <trkpt lat="47.29859" lon="6.09663">
        <ele>368.951384</ele>
        <time>2022-01-29T11:05:22.898Z</time>
      </trkpt>
      <trkpt lat="47.29866" lon="6.0967">
        <ele>369.198495</ele>
        <time>2022-01-29T11:05:32.074Z</time>
      </trkpt>
      <trkpt lat="47.29988" lon="6.09806">
        <ele>374.128735</ele>
        <time>2022-01-29T11:08:25.659Z</time>
      </trkpt>
      <trkpt lat="47.30006" lon="6.09825">
        <ele>374.972589</ele>
        <time>2022-01-29T11:08:51.363Z</time>
      </trkpt>
      <trkpt lat="47.30006" lon="6.09825">
        <ele>374.972589</ele>
        <time>2022-01-29T11:08:52.023Z</time>
      </trkpt>
      <trkpt lat="47.30006" lon="6.09825">
        <ele>374.972589</ele>
        <time>2022-01-29T11:08:52.469Z</time>
      </trkpt>
      <trkpt lat="47.30089" lon="6.09918">
        <ele>378.995824</ele>
        <time>2022-01-29T11:10:52.472Z</time>
      </trkpt>
      <trkpt lat="47.30195" lon="6.10034">
        <ele>381.456174</ele>
        <time>2022-01-29T11:13:12.454Z</time>
      </trkpt>
      <trkpt lat="47.30199" lon="6.10047">
        <ele>381.636794</ele>
        <time>2022-01-29T11:13:22.591Z</time>
      </trkpt>
      <trkpt lat="47.30212" lon="6.09989">
        <ele>382.389078</ele>
        <time>2022-01-29T11:14:05.113Z</time>
      </trkpt>
      <trkpt lat="47.30235" lon="6.09887">
        <ele>382.828568</ele>
        <time>2022-01-29T11:15:20.474Z</time>
      </trkpt>
      <trkpt lat="47.30235" lon="6.09872">
        <ele>382.889106</ele>
        <time>2022-01-29T11:15:30.779Z</time>
      </trkpt>
      <trkpt lat="47.30237" lon="6.09862">
        <ele>382.930555</ele>
        <time>2022-01-29T11:15:37.762Z</time>
      </trkpt>
      <trkpt lat="47.30267" lon="6.09727">
        <ele>383.499638</ele>
        <time>2022-01-29T11:17:15.928Z</time>
      </trkpt>
      <trkpt lat="47.30293" lon="6.09615">
        <ele>383.842467</ele>
        <time>2022-01-29T11:18:36.191Z</time>
      </trkpt>
      <trkpt lat="47.30295" lon="6.09606">
        <ele>383.873493</ele>
        <time>2022-01-29T11:18:43.540Z</time>
      </trkpt>
      <trkpt lat="47.30302" lon="6.09585">
        <ele>383.940446</ele>
        <time>2022-01-29T11:18:59.357Z</time>
      </trkpt>
      <trkpt lat="47.3031" lon="6.09559">
        <ele>384.021794</ele>
        <time>2022-01-29T11:19:18.733Z</time>
      </trkpt>
      <trkpt lat="47.30332" lon="6.09492">
        <ele>384.240623</ele>
        <time>2022-01-29T11:20:10.600Z</time>
      </trkpt>
      <trkpt lat="47.30333" lon="6.09436">
        <ele>385.064796</ele>
        <time>2022-01-29T11:20:50.366Z</time>
      </trkpt>
      <trkpt lat="47.30333" lon="6.09445">
        <ele>385.203483</ele>
        <time>2022-01-29T11:20:57.897Z</time>
      </trkpt>
      <trkpt lat="47.30336" lon="6.09452">
        <ele>385.308724</ele>
        <time>2022-01-29T11:21:02.810Z</time>
      </trkpt>
      <trkpt lat="47.30336" lon="6.09453">
        <ele>385.333308</ele>
        <time>2022-01-29T11:21:03.988Z</time>
      </trkpt>
      <trkpt lat="47.30403" lon="6.09471">
        <ele>386.81159</ele>
        <time>2022-01-29T11:22:17.737Z</time>
      </trkpt>
      <trkpt lat="47.30461" lon="6.09505">
        <ele>388.137103</ele>
        <time>2022-01-29T11:23:25.901Z</time>
      </trkpt>
      <trkpt lat="47.30483" lon="6.09509">
        <ele>388.079757</ele>
        <time>2022-01-29T11:23:51.780Z</time>
      </trkpt>
      <trkpt lat="47.30504" lon="6.09522">
        <ele>388.021792</ele>
        <time>2022-01-29T11:24:16.300Z</time>
      </trkpt>
      <trkpt lat="47.30521" lon="6.09525">
        <ele>387.977951</ele>
        <time>2022-01-29T11:24:34.485Z</time>
      </trkpt>
      <trkpt lat="47.30614" lon="6.09567">
        <ele>387.727732</ele>
        <time>2022-01-29T11:26:13.917Z</time>
      </trkpt>
      <trkpt lat="47.30663" lon="6.09573">
        <ele>386.727097</ele>
        <time>2022-01-29T11:27:07.101Z</time>
      </trkpt>
      <trkpt lat="47.30676" lon="6.09585">
        <ele>386.226305</ele>
        <time>2022-01-29T11:27:24.473Z</time>
      </trkpt>
      <trkpt lat="47.30705" lon="6.09597">
        <ele>385.259795</ele>
        <time>2022-01-29T11:27:57.671Z</time>
      </trkpt>
      <trkpt lat="47.30749" lon="6.09632">
        <ele>383.646574</ele>
        <time>2022-01-29T11:28:52.262Z</time>
      </trkpt>
      <trkpt lat="47.30769" lon="6.09636">
        <ele>382.996396</ele>
        <time>2022-01-29T11:29:13.912Z</time>
      </trkpt>
      <trkpt lat="47.30814" lon="6.09659">
        <ele>382.372088</ele>
        <time>2022-01-29T11:30:02.171Z</time>
      </trkpt>
      <trkpt lat="47.30829" lon="6.09667">
        <ele>383.005018</ele>
        <time>2022-01-29T11:30:19.697Z</time>
      </trkpt>
      <trkpt lat="47.30823" lon="6.09681">
        <ele>383.437899</ele>
        <time>2022-01-29T11:30:34.336Z</time>
      </trkpt>
      <trkpt lat="47.30803" lon="6.0971">
        <ele>384.52641</ele>
        <time>2022-01-29T11:31:03.149Z</time>
      </trkpt>
      <trkpt lat="47.30765" lon="6.09721">
        <ele>386.030319</ele>
        <time>2022-01-29T11:31:48.120Z</time>
      </trkpt>
      <trkpt lat="47.30757" lon="6.09738">
        <ele>386.564764</ele>
        <time>2022-01-29T11:32:05.996Z</time>
      </trkpt>
      <trkpt lat="47.30754" lon="6.09763">
        <ele>387.217652</ele>
        <time>2022-01-29T11:32:23.857Z</time>
      </trkpt>
      <trkpt lat="47.30752" lon="6.09786">
        <ele>387.845062</ele>
        <time>2022-01-29T11:32:47.059Z</time>
      </trkpt>
      <trkpt lat="47.30751" lon="6.09807">
        <ele>388.390734</ele>
        <time>2022-01-29T11:33:03.086Z</time>
      </trkpt>
      <trkpt lat="47.30759" lon="6.09927">
        <ele>393.791722</ele>
        <time>2022-01-29T11:34:46.882Z</time>
      </trkpt>
      <trkpt lat="47.30758" lon="6.09961">
        <ele>395.4085</ele>
        <time>2022-01-29T11:35:16.357Z</time>
      </trkpt>
      <trkpt lat="47.30757" lon="6.09986">
        <ele>396.607849</ele>
        <time>2022-01-29T11:35:36.527Z</time>
      </trkpt>
      <trkpt lat="47.30756" lon="6.10049">
        <ele>399.654973</ele>
        <time>2022-01-29T11:36:29.892Z</time>
      </trkpt>
      <trkpt lat="47.30754" lon="6.10093">
        <ele>401.733266</ele>
        <time>2022-01-29T11:37:04.945Z</time>
      </trkpt>
      <trkpt lat="47.30753" lon="6.10112">
        <ele>402.609542</ele>
        <time>2022-01-29T11:37:21.595Z</time>
      </trkpt>
      <trkpt lat="47.30763" lon="6.10229">
        <ele>407.943243</ele>
        <time>2022-01-29T11:38:58.781Z</time>
      </trkpt>
      <trkpt lat="47.30763" lon="6.10241">
        <ele>408.489175</ele>
        <time>2022-01-29T11:39:08.800Z</time>
      </trkpt>
      <trkpt lat="47.30762" lon="6.10264">
        <ele>409.501715</ele>
        <time>2022-01-29T11:39:28.260Z</time>
      </trkpt>
      <trkpt lat="47.30731" lon="6.1046">
        <ele>416.988591</ele>
        <time>2022-01-29T11:42:17.072Z</time>
      </trkpt>
      <trkpt lat="47.30705" lon="6.10563">
        <ele>420.418746</ele>
        <time>2022-01-29T11:43:41.242Z</time>
      </trkpt>
      <trkpt lat="47.30697" lon="6.10588">
        <ele>421.247508</ele>
        <time>2022-01-29T11:44:01.501Z</time>
      </trkpt>
      <trkpt lat="47.30694" lon="6.10595">
        <ele>421.50385</ele>
        <time>2022-01-29T11:44:07.096Z</time>
      </trkpt>
      <trkpt lat="47.30672" lon="6.10643">
        <ele>422.413411</ele>
        <time>2022-01-29T11:44:48.936Z</time>
      </trkpt>
      <trkpt lat="47.30653" lon="6.10654">
        <ele>422.819996</ele>
        <time>2022-01-29T11:45:10.312Z</time>
      </trkpt>
      <trkpt lat="47.30626" lon="6.10712">
        <ele>423.768439</ele>
        <time>2022-01-29T11:45:59.710Z</time>
      </trkpt>
      <trkpt lat="47.30624" lon="6.10768">
        <ele>424.516731</ele>
        <time>2022-01-29T11:46:38.230Z</time>
      </trkpt>
      <trkpt lat="47.30593" lon="6.10865">
        <ele>427.608484</ele>
        <time>2022-01-29T11:48:00.375Z</time>
      </trkpt>
      <trkpt lat="47.3059" lon="6.10903">
        <ele>429.372013</ele>
        <time>2022-01-29T11:48:32.519Z</time>
      </trkpt>
      <trkpt lat="47.30597" lon="6.1098">
        <ele>433.00947</ele>
        <time>2022-01-29T11:49:36.863Z</time>
      </trkpt>
      <trkpt lat="47.30595" lon="6.10986">
        <ele>433.313576</ele>
        <time>2022-01-29T11:49:43.777Z</time>
      </trkpt>
      <trkpt lat="47.30593" lon="6.1099">
        <ele>433.58531</ele>
        <time>2022-01-29T11:49:52.024Z</time>
      </trkpt>
      <trkpt lat="47.30574" lon="6.11002">
        <ele>434.998377</ele>
        <time>2022-01-29T11:50:16.536Z</time>
      </trkpt>
      <trkpt lat="47.30583" lon="6.1106">
        <ele>437.803027</ele>
        <time>2022-01-29T11:51:09.119Z</time>
      </trkpt>
      <trkpt lat="47.30584" lon="6.11102">
        <ele>439.963515</ele>
        <time>2022-01-29T11:51:47.307Z</time>
      </trkpt>
      <trkpt lat="47.3058" lon="6.11132">
        <ele>441.557413</ele>
        <time>2022-01-29T11:52:16.792Z</time>
      </trkpt>
      <trkpt lat="47.3056" lon="6.11195">
        <ele>445.177515</ele>
        <time>2022-01-29T11:53:18.624Z</time>
      </trkpt>
      <trkpt lat="47.30595" lon="6.11279">
        <ele>450.257382</ele>
        <time>2022-01-29T11:54:39.779Z</time>
      </trkpt>
      <trkpt lat="47.30659" lon="6.11534">
        <ele>456.450186</ele>
        <time>2022-01-29T11:58:07.274Z</time>
      </trkpt>
      <trkpt lat="47.30665" lon="6.11575">
        <ele>455.830676</ele>
        <time>2022-01-29T11:58:35.439Z</time>
      </trkpt>
      <trkpt lat="47.30663" lon="6.11597">
        <ele>455.05703</ele>
        <time>2022-01-29T11:58:51.374Z</time>
      </trkpt>
      <trkpt lat="47.30648" lon="6.11615">
        <ele>454.108758</ele>
        <time>2022-01-29T11:59:12.010Z</time>
      </trkpt>
      <trkpt lat="47.30648" lon="6.11615">
        <ele>454.103734</ele>
        <time>2022-01-29T11:59:12.098Z</time>
      </trkpt>
      <trkpt lat="47.30626" lon="6.11624">
        <ele>452.969483</ele>
        <time>2022-01-29T11:59:36.405Z</time>
      </trkpt>
      <trkpt lat="47.30605" lon="6.11625">
        <ele>451.919019</ele>
        <time>2022-01-29T11:59:59.525Z</time>
      </trkpt>
      <trkpt lat="47.30592" lon="6.11651">
        <ele>450.806586</ele>
        <time>2022-01-29T12:00:24.779Z</time>
      </trkpt>
      <trkpt lat="47.30564" lon="6.11698">
        <ele>448.68796</ele>
        <time>2022-01-29T12:01:13.487Z</time>
      </trkpt>
      <trkpt lat="47.30557" lon="6.11712">
        <ele>448.099284</ele>
        <time>2022-01-29T12:01:26.798Z</time>
      </trkpt>
      <trkpt lat="47.30541" lon="6.11738">
        <ele>445.82469</ele>
        <time>2022-01-29T12:01:55.683Z</time>
      </trkpt>
      <trkpt lat="47.30533" lon="6.11752">
        <ele>444.329143</ele>
        <time>2022-01-29T12:02:10.572Z</time>
      </trkpt>
      <trkpt lat="47.30517" lon="6.11755">
        <ele>442.495004</ele>
        <time>2022-01-29T12:02:29.921Z</time>
      </trkpt>
      <trkpt lat="47.30446" lon="6.11677">
        <ele>432.032068</ele>
        <time>2022-01-29T12:04:21.223Z</time>
      </trkpt>
      <trkpt lat="47.30375" lon="6.11557">
        <ele>419.538262</ele>
        <time>2022-01-29T12:06:34.525Z</time>
      </trkpt>
      <trkpt lat="47.30369" lon="6.11549">
        <ele>418.613567</ele>
        <time>2022-01-29T12:06:45.045Z</time>
      </trkpt>
      <trkpt lat="47.30295" lon="6.11442">
        <ele>406.622681</ele>
        <time>2022-01-29T12:08:51.166Z</time>
      </trkpt>
      <trkpt lat="47.30279" lon="6.11405">
        <ele>403.273413</ele>
        <time>2022-01-29T12:09:26.749Z</time>
      </trkpt>
      <trkpt lat="47.30249" lon="6.11272">
        <ele>392.78876</ele>
        <time>2022-01-29T12:11:21.822Z</time>
      </trkpt>
      <trkpt lat="47.30213" lon="6.11205">
        <ele>386.309615</ele>
        <time>2022-01-29T12:12:33.343Z</time>
      </trkpt>
      <trkpt lat="47.30183" lon="6.1117">
        <ele>381.535412</ele>
        <time>2022-01-29T12:13:19.877Z</time>
      </trkpt>
      <trkpt lat="47.30183" lon="6.1117">
        <ele>381.535412</ele>
        <time>2022-01-29T12:13:22.346Z</time>
      </trkpt>
      <trkpt lat="47.30183" lon="6.1117">
        <ele>381.535412</ele>
        <time>2022-01-29T12:13:24.040Z</time>
      </trkpt>
      <trkpt lat="47.30163" lon="6.11148">
        <ele>378.407885</ele>
        <time>2022-01-29T12:13:54.684Z</time>
      </trkpt>
      <trkpt lat="47.30131" lon="6.11112">
        <ele>373.244758</ele>
        <time>2022-01-29T12:14:45.613Z</time>
      </trkpt>
      <trkpt lat="47.30089" lon="6.11039">
        <ele>364.980226</ele>
        <time>2022-01-29T12:16:08.449Z</time>
      </trkpt>
      <trkpt lat="47.30069" lon="6.11017">
        <ele>361.951768</ele>
        <time>2022-01-29T12:16:39.296Z</time>
      </trkpt>
      <trkpt lat="47.30044" lon="6.10997">
        <ele>358.690608</ele>
        <time>2022-01-29T12:17:14.330Z</time>
      </trkpt>
      <trkpt lat="47.30044" lon="6.10997">
        <ele>358.690608</ele>
        <time>2022-01-29T12:17:14.606Z</time>
      </trkpt>
      <trkpt lat="47.30044" lon="6.10997">
        <ele>358.690608</ele>
        <time>2022-01-29T12:17:14.800Z</time>
      </trkpt>
      <trkpt lat="47.30033" lon="6.1099">
        <ele>357.267643</ele>
        <time>2022-01-29T12:17:29.746Z</time>
      </trkpt>
      <trkpt lat="47.30019" lon="6.10983">
        <ele>355.608845</ele>
        <time>2022-01-29T12:17:47.321Z</time>
      </trkpt>
      <trkpt lat="47.29992" lon="6.10948">
        <ele>351.450072</ele>
        <time>2022-01-29T12:18:31.427Z</time>
      </trkpt>
      <trkpt lat="47.29937" lon="6.10847">
        <ele>341.54849</ele>
        <time>2022-01-29T12:20:19.110Z</time>
      </trkpt>
      <trkpt lat="47.29827" lon="6.10731">
        <ele>330.015924</ele>
        <time>2022-01-29T12:22:58.055Z</time>
      </trkpt>
      <trkpt lat="47.29797" lon="6.10678">
        <ele>326.581322</ele>
        <time>2022-01-29T12:23:51.584Z</time>
      </trkpt>
      <trkpt lat="47.29787" lon="6.10675">
        <ele>326.243561</ele>
        <time>2022-01-29T12:24:02.554Z</time>
      </trkpt>
      <trkpt lat="47.2978" lon="6.10688">
        <ele>325.864432</ele>
        <time>2022-01-29T12:24:14.632Z</time>
      </trkpt>
      <trkpt lat="47.29778" lon="6.10702">
        <ele>325.527968</ele>
        <time>2022-01-29T12:24:25.310Z</time>
      </trkpt>
      <trkpt lat="47.29777" lon="6.10707">
        <ele>325.408615</ele>
        <time>2022-01-29T12:24:29.341Z</time>
      </trkpt>
      <trkpt lat="47.2978" lon="6.10736">
        <ele>324.738682</ele>
        <time>2022-01-29T12:24:50.753Z</time>
      </trkpt>
      <trkpt lat="47.29785" lon="6.10759">
        <ele>324.175285</ele>
        <time>2022-01-29T12:25:08.465Z</time>
      </trkpt>
      <trkpt lat="47.29788" lon="6.10782">
        <ele>323.643278</ele>
        <time>2022-01-29T12:25:25.239Z</time>
      </trkpt>
      <trkpt lat="47.29768" lon="6.10786">
        <ele>322.957954</ele>
        <time>2022-01-29T12:25:46.228Z</time>
      </trkpt>
      <trkpt lat="47.29766" lon="6.10786">
        <ele>322.879213</ele>
        <time>2022-01-29T12:25:48.814Z</time>
      </trkpt>
      <trkpt lat="47.29756" lon="6.10739">
        <ele>321.744909</ele>
        <time>2022-01-29T12:26:23.431Z</time>
      </trkpt>
      <trkpt lat="47.29749" lon="6.10697">
        <ele>320.838787</ele>
        <time>2022-01-29T12:26:53.397Z</time>
      </trkpt>
      <trkpt lat="47.2973" lon="6.10625">
        <ele>320.757226</ele>
        <time>2022-01-29T12:27:46.329Z</time>
      </trkpt>
      <trkpt lat="47.29724" lon="6.10593">
        <ele>320.721537</ele>
        <time>2022-01-29T12:28:09.882Z</time>
      </trkpt>
      <trkpt lat="47.29697" lon="6.10549">
        <ele>320.658629</ele>
        <time>2022-01-29T12:28:51.668Z</time>
      </trkpt>
      <trkpt lat="47.2967" lon="6.10508">
        <ele>320.597407</ele>
        <time>2022-01-29T12:29:31.029Z</time>
      </trkpt>
      <trkpt lat="47.29631" lon="6.10421">
        <ele>320.156352</ele>
        <time>2022-01-29T12:30:42.375Z</time>
      </trkpt>
      <trkpt lat="47.29612" lon="6.10404">
        <ele>319.96282</ele>
        <time>2022-01-29T12:31:05.435Z</time>
      </trkpt>
      <trkpt lat="47.29551" lon="6.10382">
        <ele>319.423304</ele>
        <time>2022-01-29T12:32:09.947Z</time>
      </trkpt>
      <trkpt lat="47.29512" lon="6.10383">
        <ele>319.085733</ele>
        <time>2022-01-29T12:32:49.666Z</time>
      </trkpt>
      <trkpt lat="47.2948" lon="6.10349">
        <ele>319.139025</ele>
        <time>2022-01-29T12:33:29.400Z</time>
      </trkpt>
      <trkpt lat="47.29455" lon="6.10339">
        <ele>319.243611</ele>
        <time>2022-01-29T12:33:55.137Z</time>
      </trkpt>
      <trkpt lat="47.29455" lon="6.10339">
        <ele>319.243611</ele>
        <time>2022-01-29T12:33:55.157Z</time>
      </trkpt>
      <trkpt lat="47.29455" lon="6.10339">
        <ele>319.243611</ele>
        <time>2022-01-29T12:33:55.184Z</time>
      </trkpt>
      <trkpt lat="47.29415" lon="6.10344">
        <ele>319.408862</ele>
        <time>2022-01-29T12:34:35.979Z</time>
      </trkpt>
      <trkpt lat="47.29403" lon="6.10341">
        <ele>319.460761</ele>
        <time>2022-01-29T12:34:49.151Z</time>
      </trkpt>
      <trkpt lat="47.29354" lon="6.10325">
        <ele>319.665878</ele>
        <time>2022-01-29T12:35:40.650Z</time>
      </trkpt>
      <trkpt lat="47.29338" lon="6.10328">
        <ele>319.731988</ele>
        <time>2022-01-29T12:35:57.642Z</time>
      </trkpt>
      <trkpt lat="47.29327" lon="6.10338">
        <ele>319.908153</ele>
        <time>2022-01-29T12:36:10.837Z</time>
      </trkpt>
      <trkpt lat="47.29267" lon="6.10304">
        <ele>321.12816</ele>
        <time>2022-01-29T12:37:19.646Z</time>
      </trkpt>
      <trkpt lat="47.29192" lon="6.10297">
        <ele>322.546556</ele>
        <time>2022-01-29T12:38:39.983Z</time>
      </trkpt>
      <trkpt lat="47.29142" lon="6.1028">
        <ele>323.470196</ele>
        <time>2022-01-29T12:39:36.058Z</time>
      </trkpt>
      <trkpt lat="47.29094" lon="6.10254">
        <ele>324.298195</ele>
        <time>2022-01-29T12:40:30.975Z</time>
      </trkpt>
      <trkpt lat="47.29076" lon="6.1025">
        <ele>324.589747</ele>
        <time>2022-01-29T12:40:50.296Z</time>
      </trkpt>
      <trkpt lat="47.29029" lon="6.10245">
        <ele>325.366518</ele>
        <time>2022-01-29T12:41:40.764Z</time>
      </trkpt>
      <trkpt lat="47.29014" lon="6.1025">
        <ele>325.609028</ele>
        <time>2022-01-29T12:41:56.779Z</time>
      </trkpt>
      <trkpt lat="47.28976" lon="6.10262">
        <ele>325.994165</ele>
        <time>2022-01-29T12:42:36.416Z</time>
      </trkpt>
      <trkpt lat="47.2888" lon="6.10328">
        <ele>325.209988</ele>
        <time>2022-01-29T12:44:22.379Z</time>
      </trkpt>
      <trkpt lat="47.28874" lon="6.10338">
        <ele>325.139668</ele>
        <time>2022-01-29T12:44:32.382Z</time>
      </trkpt>
      <trkpt lat="47.28874" lon="6.10338">
        <ele>325.139668</ele>
        <time>2022-01-29T12:44:32.515Z</time>
      </trkpt>
      <trkpt lat="47.28867" lon="6.10333">
        <ele>325.076795</ele>
        <time>2022-01-29T12:44:41.362Z</time>
      </trkpt>
      <trkpt lat="47.28834" lon="6.10327">
        <ele>324.831958</ele>
        <time>2022-01-29T12:45:15.847Z</time>
      </trkpt>
      <trkpt lat="47.28761" lon="6.10365">
        <ele>323.794034</ele>
        <time>2022-01-29T12:46:36.954Z</time>
      </trkpt>
      <trkpt lat="47.28743" lon="6.1037">
        <ele>323.531332</ele>
        <time>2022-01-29T12:46:55.647Z</time>
      </trkpt>
      <trkpt lat="47.28728" lon="6.10373">
        <ele>323.31459</ele>
        <time>2022-01-29T12:47:11.335Z</time>
      </trkpt>
      <trkpt lat="47.28699" lon="6.10389">
        <ele>322.862799</ele>
        <time>2022-01-29T12:47:43.200Z</time>
      </trkpt>
      <trkpt lat="47.28655" lon="6.10431">
        <ele>322.1174</ele>
        <time>2022-01-29T12:48:36.504Z</time>
      </trkpt>
      <trkpt lat="47.28625" lon="6.10443">
        <ele>322.130117</ele>
        <time>2022-01-29T12:49:07.985Z</time>
      </trkpt>
      <trkpt lat="47.28591" lon="6.10448">
        <ele>322.14416</ele>
        <time>2022-01-29T12:49:43.112Z</time>
      </trkpt>
      <trkpt lat="47.28569" lon="6.1044">
        <ele>322.153248</ele>
        <time>2022-01-29T12:50:06.334Z</time>
      </trkpt>
      <trkpt lat="47.28543" lon="6.1044">
        <ele>322.163497</ele>
        <time>2022-01-29T12:50:32.089Z</time>
      </trkpt>
      <trkpt lat="47.28502" lon="6.10425">
        <ele>322.180695</ele>
        <time>2022-01-29T12:51:15.165Z</time>
      </trkpt>
      <trkpt lat="47.28464" lon="6.10421">
        <ele>321.738185</ele>
        <time>2022-01-29T12:51:53.632Z</time>
      </trkpt>
      <trkpt lat="47.28464" lon="6.10421">
        <ele>321.738185</ele>
        <time>2022-01-29T12:51:54.197Z</time>
      </trkpt>
      <trkpt lat="47.28464" lon="6.10421">
        <ele>321.738185</ele>
        <time>2022-01-29T12:51:55.021Z</time>
      </trkpt>
      <trkpt lat="47.2846" lon="6.10421">
        <ele>321.614722</ele>
        <time>2022-01-29T12:51:59.417Z</time>
      </trkpt>
      <trkpt lat="47.28433" lon="6.1043">
        <ele>320.831132</ele>
        <time>2022-01-29T12:52:27.672Z</time>
      </trkpt>
      <trkpt lat="47.284" lon="6.10426">
        <ele>319.879987</ele>
        <time>2022-01-29T12:53:02.445Z</time>
      </trkpt>
      <trkpt lat="47.28377" lon="6.1043">
        <ele>319.220915</ele>
        <time>2022-01-29T12:53:26.920Z</time>
      </trkpt>
      <trkpt lat="47.28317" lon="6.10454">
        <ele>317.460422</ele>
        <time>2022-01-29T12:54:33.901Z</time>
      </trkpt>
      <trkpt lat="47.28246" lon="6.10467">
        <ele>313.575442</ele>
        <time>2022-01-29T12:55:54.148Z</time>
      </trkpt>
      <trkpt lat="47.28242" lon="6.10468">
        <ele>313.338815</ele>
        <time>2022-01-29T12:55:58.533Z</time>
      </trkpt>
      <trkpt lat="47.28242" lon="6.10468">
        <ele>313.338815</ele>
        <time>2022-01-29T12:55:58.843Z</time>
      </trkpt>
      <trkpt lat="47.28242" lon="6.10468">
        <ele>313.338815</ele>
        <time>2022-01-29T12:55:59.274Z</time>
      </trkpt>
      <trkpt lat="47.28187" lon="6.10468">
        <ele>310.037878</ele>
        <time>2022-01-29T12:57:00.125Z</time>
      </trkpt>
      <trkpt lat="47.28144" lon="6.10462">
        <ele>307.389353</ele>
        <time>2022-01-29T12:57:49.807Z</time>
      </trkpt>
      <trkpt lat="47.28041" lon="6.10412">
        <ele>298.922154</ele>
        <time>2022-01-29T12:59:55.335Z</time>
      </trkpt>
      <trkpt lat="47.28038" lon="6.10411">
        <ele>298.732022</ele>
        <time>2022-01-29T12:59:58.771Z</time>
      </trkpt>
      <trkpt lat="47.28012" lon="6.10401">
        <ele>296.521127</ele>
        <time>2022-01-29T13:00:29.620Z</time>
      </trkpt>
      <trkpt lat="47.28009" lon="6.104">
        <ele>296.249464</ele>
        <time>2022-01-29T13:00:33.339Z</time>
      </trkpt>
      <trkpt lat="47.28005" lon="6.10398">
        <ele>295.919588</ele>
        <time>2022-01-29T13:00:37.857Z</time>
      </trkpt>
      <trkpt lat="47.27998" lon="6.10396">
        <ele>295.358979</ele>
        <time>2022-01-29T13:00:46.818Z</time>
      </trkpt>
      <trkpt lat="47.27933" lon="6.10373">
        <ele>289.728578</ele>
        <time>2022-01-29T13:02:04.906Z</time>
      </trkpt>
      <trkpt lat="47.27884" lon="6.10367">
        <ele>285.351104</ele>
        <time>2022-01-29T13:03:03.585Z</time>
      </trkpt>
      <trkpt lat="47.27857" lon="6.10373">
        <ele>282.893667</ele>
        <time>2022-01-29T13:03:36.461Z</time>
      </trkpt>
      <trkpt lat="47.27791" lon="6.10413">
        <ele>276.603063</ele>
        <time>2022-01-29T13:04:59.542Z</time>
      </trkpt>
      <trkpt lat="47.27773" lon="6.10418">
        <ele>275.06991</ele>
        <time>2022-01-29T13:05:20.508Z</time>
      </trkpt>
      <trkpt lat="47.27727" lon="6.10419">
        <ele>271.676545</ele>
        <time>2022-01-29T13:06:15.323Z</time>
      </trkpt>
      <trkpt lat="47.27702" lon="6.10408">
        <ele>269.772701</ele>
        <time>2022-01-29T13:06:45.415Z</time>
      </trkpt>
      <trkpt lat="47.27694" lon="6.10405">
        <ele>269.201092</ele>
        <time>2022-01-29T13:06:54.756Z</time>
      </trkpt>
      <trkpt lat="47.27687" lon="6.10402">
        <ele>268.696632</ele>
        <time>2022-01-29T13:07:03.063Z</time>
      </trkpt>
      <trkpt lat="47.2768" lon="6.10404">
        <ele>268.185542</ele>
        <time>2022-01-29T13:07:11.069Z</time>
      </trkpt>
      <trkpt lat="47.27646" lon="6.10387">
        <ele>265.562299</ele>
        <time>2022-01-29T13:07:52.194Z</time>
      </trkpt>
      <trkpt lat="47.27588" lon="6.10337">
        <ele>261.796693</ele>
        <time>2022-01-29T13:09:07.247Z</time>
      </trkpt>
      <trkpt lat="47.27531" lon="6.10324">
        <ele>260.353937</ele>
        <time>2022-01-29T13:10:10.036Z</time>
      </trkpt>
      <trkpt lat="47.27531" lon="6.1032">
        <ele>260.294842</ele>
        <time>2022-01-29T13:10:12.443Z</time>
      </trkpt>
      <trkpt lat="47.27531" lon="6.10313">
        <ele>260.173359</ele>
        <time>2022-01-29T13:10:17.423Z</time>
      </trkpt>
      <trkpt lat="47.27559" lon="6.10088">
        <ele>257.52462</ele>
        <time>2022-01-29T13:12:54.723Z</time>
      </trkpt>
      <trkpt lat="47.27575" lon="6.09918">
        <ele>256.807496</ele>
        <time>2022-01-29T13:14:52.154Z</time>
      </trkpt>
      <trkpt lat="47.27592" lon="6.0983">
        <ele>256.083792</ele>
        <time>2022-01-29T13:15:56.461Z</time>
      </trkpt>
      <trkpt lat="47.27659" lon="6.09618">
        <ele>254.367009</ele>
        <time>2022-01-29T13:18:39.399Z</time>
      </trkpt>
      <trkpt lat="47.27674" lon="6.09588">
        <ele>254.146233</ele>
        <time>2022-01-29T13:19:04.747Z</time>
      </trkpt>
      <trkpt lat="47.27701" lon="6.09553">
        <ele>253.825273</ele>
        <time>2022-01-29T13:19:41.590Z</time>
      </trkpt>
      <trkpt lat="47.2772" lon="6.0954">
        <ele>253.634588</ele>
        <time>2022-01-29T13:20:03.388Z</time>
      </trkpt>
      <trkpt lat="47.27736" lon="6.09543">
        <ele>253.495604</ele>
        <time>2022-01-29T13:20:19.227Z</time>
      </trkpt>
      <trkpt lat="47.27794" lon="6.09589">
        <ele>252.945022</ele>
        <time>2022-01-29T13:21:25.993Z</time>
      </trkpt>
      <trkpt lat="47.2782" lon="6.09575">
        <ele>252.732403</ele>
        <time>2022-01-29T13:21:54.480Z</time>
      </trkpt>
      <trkpt lat="47.27829" lon="6.0956">
        <ele>252.627897</ele>
        <time>2022-01-29T13:22:08.492Z</time>
      </trkpt>
      <trkpt lat="47.27846" lon="6.0949">
        <ele>252.248559</ele>
        <time>2022-01-29T13:22:59.378Z</time>
      </trkpt>
      <trkpt lat="47.27844" lon="6.09459">
        <ele>252.089327</ele>
        <time>2022-01-29T13:23:20.818Z</time>
      </trkpt>
      <trkpt lat="47.27828" lon="6.09384">
        <ele>251.712362</ele>
        <time>2022-01-29T13:24:14.891Z</time>
      </trkpt>
      <trkpt lat="47.27829" lon="6.09381">
        <ele>251.700059</ele>
        <time>2022-01-29T13:24:17.182Z</time>
      </trkpt>
      <trkpt lat="47.27833" lon="6.09352">
        <ele>251.586623</ele>
        <time>2022-01-29T13:24:37.859Z</time>
      </trkpt>
      <trkpt lat="47.27865" lon="6.09218">
        <ele>251.04904</ele>
        <time>2022-01-29T13:26:15.942Z</time>
      </trkpt>
      <trkpt lat="47.27922" lon="6.09039">
        <ele>251.014385</ele>
        <time>2022-01-29T13:28:29.809Z</time>
      </trkpt>
      <trkpt lat="47.27951" lon="6.08898">
        <ele>251.337304</ele>
        <time>2022-01-29T13:30:12.021Z</time>
      </trkpt>
      <trkpt lat="47.27972" lon="6.08881">
        <ele>251.603911</ele>
        <time>2022-01-29T13:30:36.331Z</time>
      </trkpt>
      <trkpt lat="47.27977" lon="6.08877">
        <ele>251.667493</ele>
        <time>2022-01-29T13:30:42.271Z</time>
      </trkpt>
      <trkpt lat="47.27977" lon="6.08877">
        <ele>251.667493</ele>
        <time>2022-01-29T13:30:42.489Z</time>
      </trkpt>
      <trkpt lat="47.27985" lon="6.08881">
        <ele>251.75516</ele>
        <time>2022-01-29T13:30:50.419Z</time>
      </trkpt>
      <trkpt lat="47.28022" lon="6.08911">
        <ele>252.228749</ele>
        <time>2022-01-29T13:31:33.747Z</time>
      </trkpt>
      <trkpt lat="47.28076" lon="6.08932">
        <ele>252.845548</ele>
        <time>2022-01-29T13:32:30.980Z</time>
      </trkpt>
      <trkpt lat="47.28084" lon="6.08939">
        <ele>252.948618</ele>
        <time>2022-01-29T13:32:40.818Z</time>
      </trkpt>
      <trkpt lat="47.28089" lon="6.08945">
        <ele>253.020776</ele>
        <time>2022-01-29T13:32:47.758Z</time>
      </trkpt>
      <trkpt lat="47.28115" lon="6.08962">
        <ele>253.504866</ele>
        <time>2022-01-29T13:33:18.583Z</time>
      </trkpt>
      <trkpt lat="47.28121" lon="6.0896">
        <ele>253.770654</ele>
        <time>2022-01-29T13:33:25.478Z</time>
      </trkpt>
      <trkpt lat="47.28126" lon="6.08958">
        <ele>253.985816</ele>
        <time>2022-01-29T13:33:31.052Z</time>
      </trkpt>
      <trkpt lat="47.28175" lon="6.0894">
        <ele>256.050136</ele>
        <time>2022-01-29T13:34:27.000Z</time>
      </trkpt>
      <trkpt lat="47.28206" lon="6.08939">
        <ele>257.338313</ele>
        <time>2022-01-29T13:35:01.783Z</time>
      </trkpt>
      <trkpt lat="47.28209" lon="6.0894">
        <ele>257.485178</ele>
        <time>2022-01-29T13:35:05.739Z</time>
      </trkpt>
      <trkpt lat="47.28209" lon="6.0894">
        <ele>257.485178</ele>
        <time>2022-01-29T13:35:07.068Z</time>
      </trkpt>
      <trkpt lat="47.28231" lon="6.08941">
        <ele>258.39099</ele>
        <time>2022-01-29T13:35:32.406Z</time>
      </trkpt>
      <trkpt lat="47.28243" lon="6.08938">
        <ele>258.893824</ele>
        <time>2022-01-29T13:35:46.127Z</time>
      </trkpt>
      <trkpt lat="47.2827" lon="6.08903">
        <ele>260.347459</ele>
        <time>2022-01-29T13:36:28.295Z</time>
      </trkpt>
      <trkpt lat="47.28292" lon="6.08845">
        <ele>262.909489</ele>
        <time>2022-01-29T13:37:24.597Z</time>
      </trkpt>
      <trkpt lat="47.28304" lon="6.08778">
        <ele>265.680016</ele>
        <time>2022-01-29T13:38:22.989Z</time>
      </trkpt>
      <trkpt lat="47.28322" lon="6.08717">
        <ele>268.36082</ele>
        <time>2022-01-29T13:39:17.954Z</time>
      </trkpt>
      <trkpt lat="47.28348" lon="6.08656">
        <ele>271.224218</ele>
        <time>2022-01-29T13:40:15.130Z</time>
      </trkpt>
      <trkpt lat="47.28381" lon="6.08557">
        <ele>273.07116</ele>
        <time>2022-01-29T13:41:40.416Z</time>
      </trkpt>
      <trkpt lat="47.28381" lon="6.08557">
        <ele>273.07116</ele>
        <time>2022-01-29T13:41:40.882Z</time>
      </trkpt>
      <trkpt lat="47.28381" lon="6.08557">
        <ele>273.07116</ele>
        <time>2022-01-29T13:41:41.200Z</time>
      </trkpt>
      <trkpt lat="47.28377" lon="6.08523">
        <ele>273.629165</ele>
        <time>2022-01-29T13:42:06.735Z</time>
      </trkpt>
      <trkpt lat="47.28375" lon="6.08503">
        <ele>273.95162</ele>
        <time>2022-01-29T13:42:21.557Z</time>
      </trkpt>
      <trkpt lat="47.28383" lon="6.08384">
        <ele>275.598586</ele>
        <time>2022-01-29T13:43:45.007Z</time>
      </trkpt>
      <trkpt lat="47.28384" lon="6.08377">
        <ele>275.598586</ele>
        <time>2022-01-29T13:43:50.298Z</time>
      </trkpt>
      <trkpt lat="47.28392" lon="6.08299">
        <ele>275.598586</ele>
        <time>2022-01-29T13:44:45.008Z</time>
      </trkpt>
      <trkpt lat="47.28394" lon="6.08273">
        <ele>275.598586</ele>
        <time>2022-01-29T13:45:04.233Z</time>
      </trkpt>
      <trkpt lat="47.28403" lon="6.08233">
        <ele>275.598586</ele>
        <time>2022-01-29T13:45:33.283Z</time>
      </trkpt>
      <trkpt lat="47.28404" lon="6.08232">
        <ele>275.598586</ele>
        <time>2022-01-29T13:45:34.325Z</time>
      </trkpt>
      <trkpt lat="47.28405" lon="6.08226">
        <ele>275.598586</ele>
        <time>2022-01-29T13:45:39.091Z</time>
      </trkpt>
      <trkpt lat="47.28439" lon="6.08161">
        <ele>275.598586</ele>
        <time>2022-01-29T13:46:36.248Z</time>
      </trkpt>
      <trkpt lat="47.2844" lon="6.08154">
        <ele>275.598586</ele>
        <time>2022-01-29T13:46:41.607Z</time>
      </trkpt>
      <trkpt lat="47.28441" lon="6.08149">
        <ele>275.598586</ele>
        <time>2022-01-29T13:46:45.279Z</time>
      </trkpt>
      <trkpt lat="47.28415" lon="6.08116">
        <ele>275.598586</ele>
        <time>2022-01-29T13:47:20.253Z</time>
      </trkpt>
    </trkseg>
  </trk>
</gpx>